createdAt,value
2023-04-01T00:01:15.834Z,79.20
2023-04-01T00:03:44.280Z,79.40
2023-04-01T00:06:16.802Z,79.30
2023-04-01T00:08:45.458Z,79.40
2023-04-01T00:11:13.613Z,79.30
2023-04-01T00:13:41.877Z,79.40
2023-04-01T00:16:20.988Z,79.40
2023-04-01T00:18:51.064Z,79.40
2023-04-01T00:21:22.727Z,79.40
2023-04-01T00:23:51.581Z,79.50
2023-04-01T00:26:22.239Z,79.50
2023-04-01T00:28:51.019Z,79.50
2023-04-01T00:31:19.393Z,79.50
2023-04-01T00:33:47.574Z,79.50
2023-04-01T00:36:17.589Z,79.50
2023-04-01T00:38:47.814Z,79.50
2023-04-01T00:41:23.003Z,79.60
2023-04-01T00:43:52.885Z,79.80
2023-04-01T00:46:21.303Z,79.60
2023-04-01T00:48:52.414Z,79.80
2023-04-01T00:51:23.984Z,79.80
2023-04-01T00:53:56.679Z,79.80
2023-04-01T00:56:27.904Z,79.80
2023-04-01T00:59:00.483Z,79.70
2023-04-01T01:01:29.971Z,79.80
2023-04-01T01:03:58.153Z,79.60
2023-04-01T01:06:40.090Z,79.50
2023-04-01T01:09:29.908Z,79.80
2023-04-01T01:12:08.250Z,80.10
2023-04-01T01:14:53.454Z,80.00
2023-04-01T01:17:33.147Z,80.00
2023-04-01T01:20:37.350Z,80.30
2023-04-01T01:23:40.229Z,80.40
2023-04-01T01:26:51.389Z,80.20
2023-04-01T01:29:47.194Z,80.20
2023-04-01T01:32:28.190Z,80.10
2023-04-01T01:35:06.230Z,79.90
2023-04-01T01:37:35.024Z,79.80
2023-04-01T01:40:07.143Z,79.90
2023-04-01T01:42:39.154Z,80.10
2023-04-01T01:45:10.073Z,80.10
2023-04-01T01:47:39.309Z,80.10
2023-04-01T01:50:11.662Z,79.90
2023-04-01T01:52:39.809Z,80.10
2023-04-01T01:55:27.507Z,80.00
2023-04-01T01:57:58.200Z,80.50
2023-04-01T02:00:27.297Z,80.20
2023-04-01T02:02:56.062Z,80.20
2023-04-01T02:05:27.926Z,80.10
2023-04-01T02:08:02.606Z,80.10
2023-04-01T02:10:36.119Z,80.10
2023-04-01T02:13:09.964Z,80.00
2023-04-01T02:15:43.638Z,80.20
2023-04-01T02:18:12.911Z,80.20
2023-04-01T02:20:44.007Z,80.10
2023-04-01T02:23:13.007Z,80.20
2023-04-01T02:25:43.480Z,80.20
2023-04-01T02:28:13.667Z,80.20
2023-04-01T02:30:43.729Z,80.20
2023-04-01T02:33:12.183Z,80.10
2023-04-01T02:35:40.697Z,80.80
2023-04-01T02:38:10.611Z,80.10
2023-04-01T02:40:48.409Z,80.10
2023-04-01T02:43:17.207Z,80.00
2023-04-01T02:45:45.448Z,79.90
2023-04-01T02:48:13.942Z,79.90
2023-04-01T02:50:42.369Z,79.80
2023-04-01T02:53:12.335Z,79.80
2023-04-01T02:55:40.467Z,79.70
2023-04-01T02:58:08.692Z,79.80
2023-04-01T03:00:36.812Z,79.90
2023-04-01T03:03:05.147Z,79.90
2023-04-01T03:05:33.513Z,79.90
2023-04-01T03:08:01.755Z,79.80
2023-04-01T03:10:31.306Z,79.70
2023-04-01T03:12:59.460Z,79.90
2023-04-01T03:15:27.596Z,79.80
2023-04-01T03:17:55.787Z,79.90
2023-04-01T03:20:23.980Z,79.90
2023-04-01T03:22:52.216Z,80.00
2023-04-01T03:25:21.242Z,80.10
2023-04-01T03:27:51.600Z,80.10
2023-04-01T03:30:20.051Z,80.20
2023-04-01T03:32:48.282Z,80.20
2023-04-01T03:35:16.608Z,80.20
2023-04-01T03:37:44.778Z,80.30
2023-04-01T03:40:13.882Z,80.20
2023-04-01T03:42:42.052Z,80.50
2023-04-01T03:45:12.966Z,80.40
2023-04-01T03:47:41.182Z,80.50
2023-04-01T03:50:11.021Z,80.40
2023-04-01T03:52:39.194Z,80.50
2023-04-01T03:55:07.977Z,80.40
2023-04-01T03:57:36.366Z,80.50
2023-04-01T04:00:05.059Z,80.40
2023-04-01T04:02:34.616Z,80.40
2023-04-01T04:05:02.822Z,80.70
2023-04-01T04:07:30.983Z,80.60
2023-04-01T04:09:59.065Z,80.60
2023-04-01T04:12:27.137Z,80.60
2023-04-01T04:14:55.292Z,80.70
2023-04-01T04:17:23.523Z,80.70
2023-04-01T04:19:53.304Z,80.70
2023-04-01T04:22:21.422Z,80.70
2023-04-01T04:24:49.526Z,80.80
2023-04-01T04:27:17.799Z,80.70
2023-04-01T04:29:45.988Z,80.80
2023-04-01T04:32:14.388Z,80.80
2023-04-01T04:34:42.511Z,81.00
2023-04-01T04:37:12.015Z,81.00
2023-04-01T04:39:40.136Z,81.10
2023-04-01T04:42:08.506Z,81.20
2023-04-01T04:44:36.631Z,81.40
2023-04-01T04:47:04.923Z,81.40
2023-04-01T04:49:33.252Z,81.50
2023-04-01T04:52:01.370Z,81.40
2023-04-01T04:54:32.017Z,81.40
2023-04-01T04:57:00.227Z,81.60
2023-04-01T04:59:28.372Z,81.40
2023-04-01T05:01:56.564Z,81.40
2023-04-01T05:04:24.620Z,81.40
2023-04-01T05:06:52.770Z,81.50
2023-04-01T05:09:21.034Z,81.50
2023-04-01T05:11:50.633Z,81.60
2023-04-01T05:14:18.998Z,81.70
2023-04-01T05:16:47.190Z,81.60
2023-04-01T05:19:15.405Z,81.60
2023-04-01T05:21:43.534Z,81.80
2023-04-01T05:24:11.860Z,81.90
2023-04-01T05:26:40.272Z,81.80
2023-04-01T05:29:09.721Z,81.90
2023-04-01T05:31:38.086Z,82.00
2023-04-01T05:34:06.325Z,81.90
2023-04-01T05:36:34.448Z,82.00
2023-04-01T05:39:02.595Z,82.00
2023-04-01T05:41:30.888Z,82.00
2023-04-01T05:43:58.968Z,82.10
2023-04-01T05:46:28.505Z,82.10
2023-04-01T05:48:56.783Z,82.20
2023-04-01T05:51:24.975Z,82.20
2023-04-01T05:53:53.114Z,82.20
2023-04-01T05:56:21.227Z,82.10
2023-04-01T05:58:52.820Z,82.20
2023-04-01T06:01:21.564Z,82.30
2023-04-01T06:03:51.224Z,82.30
2023-04-01T06:06:26.303Z,82.40
2023-04-01T06:08:54.862Z,82.70
2023-04-01T06:11:36.854Z,82.40
2023-04-01T06:14:22.504Z,82.80
2023-04-01T06:17:04.059Z,82.90
2023-04-01T06:19:44.100Z,82.70
2023-04-01T06:22:49.910Z,82.60
2023-04-01T06:25:47.856Z,82.80
2023-04-01T06:28:59.099Z,82.60
2023-04-01T06:31:42.274Z,82.80
2023-04-01T06:34:35.577Z,82.50
2023-04-01T06:37:17.923Z,82.50
2023-04-01T06:40:14.263Z,82.60
2023-04-01T06:42:57.570Z,82.50
2023-04-01T06:45:36.700Z,82.50
2023-04-01T06:48:39.813Z,82.50
2023-04-01T06:51:19.160Z,82.50
2023-04-01T06:54:02.736Z,82.30
2023-04-01T06:56:31.570Z,82.40
2023-04-01T06:59:04.096Z,82.30
2023-04-01T07:01:37.557Z,82.00
2023-04-01T07:04:13.928Z,82.20
2023-04-01T07:06:48.556Z,82.40
2023-04-01T07:09:23.003Z,82.10
2023-04-01T07:11:52.727Z,82.40
2023-04-01T07:14:26.434Z,82.10
2023-04-01T07:17:01.435Z,82.00
2023-04-01T07:19:34.272Z,81.90
2023-04-01T07:22:06.624Z,81.70
2023-04-01T07:24:39.682Z,81.70
2023-04-01T07:27:11.567Z,81.60
2023-04-01T07:29:39.767Z,81.50
2023-04-01T07:32:36.151Z,81.40
2023-04-01T07:35:17.492Z,81.80
2023-04-01T07:37:58.226Z,81.50
2023-04-01T07:40:40.091Z,81.40
2023-04-01T07:43:29.312Z,81.30
2023-04-01T07:46:06.746Z,81.60
2023-04-01T07:48:44.463Z,81.70
2023-04-01T07:51:21.241Z,81.60
2023-04-01T07:53:58.654Z,81.70
2023-04-01T07:56:36.320Z,81.80
2023-04-01T07:59:13.928Z,82.00
2023-04-01T08:01:48.001Z,81.90
2023-04-01T08:04:36.077Z,81.70
2023-04-01T08:07:11.607Z,81.90
2023-04-01T08:09:47.437Z,81.40
2023-04-01T08:12:30.245Z,81.30
2023-04-01T08:15:07.986Z,80.90
2023-04-01T08:17:42.807Z,80.70
2023-04-01T08:20:20.948Z,80.80
2023-04-01T08:22:53.708Z,80.60
2023-04-01T08:25:26.587Z,80.70
2023-04-01T08:28:01.459Z,80.80
2023-04-01T08:30:37.538Z,80.70
2023-04-01T08:33:15.014Z,80.60
2023-04-01T08:35:49.022Z,80.60
2023-04-01T08:38:22.698Z,80.40
2023-04-01T08:41:26.357Z,80.40
2023-04-01T08:44:16.951Z,80.50
2023-04-01T08:47:11.633Z,80.60
2023-04-01T08:49:59.046Z,80.70
2023-04-01T08:52:37.708Z,80.50
2023-04-01T08:55:30.181Z,80.50
2023-04-01T08:58:13.728Z,80.50
2023-04-01T09:00:45.800Z,80.50
2023-04-01T09:03:45.188Z,80.40
2023-04-01T09:06:39.775Z,80.10
2023-04-01T09:09:34.024Z,79.80
2023-04-01T09:12:20.449Z,79.70
2023-04-01T09:15:09.211Z,80.30
2023-04-01T09:18:17.228Z,79.70
2023-04-01T09:21:07.129Z,79.60
2023-04-01T09:23:49.196Z,79.60
2023-04-01T09:26:45.523Z,80.10
2023-04-01T09:29:27.236Z,79.70
2023-04-01T09:32:17.366Z,79.60
2023-04-01T09:34:57.284Z,79.70
2023-04-01T09:37:41.070Z,79.30
2023-04-01T09:40:19.550Z,79.30
2023-04-01T09:43:14.467Z,79.00
2023-04-01T09:45:50.743Z,79.10
2023-04-01T09:48:42.564Z,78.80
2023-04-01T09:51:25.391Z,78.60
2023-04-01T09:54:09.684Z,78.70
2023-04-01T09:57:16.129Z,78.70
2023-04-01T10:00:13.348Z,78.60
2023-04-01T10:03:12.560Z,78.30
2023-04-01T10:06:27.225Z,78.30
2023-04-01T10:09:23.853Z,78.00
2023-04-01T10:12:32.195Z,77.90
2023-04-01T10:15:31.774Z,77.90
2023-04-01T10:18:25.453Z,77.50
2023-04-01T10:21:10.219Z,77.40
2023-04-01T10:24:02.954Z,77.50
2023-04-01T10:27:05.799Z,77.60
2023-04-01T10:30:03.979Z,77.70
2023-04-01T10:33:08.544Z,77.70
2023-04-01T10:36:21.697Z,77.70
2023-04-01T10:39:24.047Z,77.80
2023-04-01T10:42:27.053Z,77.90
2023-04-01T10:45:25.219Z,77.70
2023-04-01T10:48:30.045Z,78.10
2023-04-01T10:51:17.759Z,78.20
2023-04-01T10:54:01.415Z,78.60
2023-04-01T10:56:45.818Z,78.50
2023-04-01T10:59:41.791Z,78.70
2023-04-01T11:02:48.843Z,78.90
2023-04-01T11:05:55.364Z,79.10
2023-04-01T11:09:12.477Z,79.20
2023-04-01T11:12:01.587Z,78.80
2023-04-01T11:14:55.744Z,79.50
2023-04-01T11:17:43.526Z,78.60
2023-04-01T11:20:48.384Z,78.70
2023-04-01T11:23:32.669Z,79.00
2023-04-01T11:26:28.451Z,78.80
2023-04-01T11:29:26.920Z,78.60
2023-04-01T11:32:04.712Z,78.80
2023-04-01T11:34:44.821Z,78.50
2023-04-01T11:37:26.260Z,78.60
2023-04-01T11:40:05.769Z,78.70
2023-04-01T11:42:42.122Z,78.80
2023-04-01T11:45:24.960Z,78.80
2023-04-01T11:48:18.254Z,79.20
2023-04-01T11:51:02.268Z,79.10
2023-04-01T11:53:41.765Z,79.20
2023-04-01T11:56:22.658Z,79.00
2023-04-01T11:59:06.870Z,79.00
2023-04-01T12:02:01.929Z,79.10
2023-04-01T12:05:02.199Z,79.20
2023-04-01T12:07:49.122Z,79.30
2023-04-01T12:10:39.567Z,79.60
2023-04-01T12:13:18.466Z,79.60
2023-04-01T12:16:06.016Z,79.90
2023-04-01T12:18:40.864Z,80.20
2023-04-01T12:21:20.766Z,80.10
2023-04-01T12:24:15.848Z,80.00
2023-04-01T12:27:01.882Z,79.80
2023-04-01T12:29:55.839Z,79.60
2023-04-01T12:32:34.234Z,80.00
2023-04-01T12:35:26.908Z,80.10
2023-04-01T12:38:16.267Z,80.70
2023-04-01T12:41:10.125Z,80.70
2023-04-01T12:44:01.843Z,80.60
2023-04-01T12:46:53.864Z,80.40
2023-04-01T12:49:43.253Z,80.30
2023-04-01T12:52:15.443Z,80.30
2023-04-01T12:55:17.260Z,80.40
2023-04-01T12:58:21.648Z,80.50
2023-04-01T13:01:36.689Z,80.50
2023-04-01T13:04:37.400Z,80.30
2023-04-01T13:07:38.059Z,80.10
2023-04-01T13:10:22.366Z,79.70
2023-04-01T13:13:07.565Z,79.70
2023-04-01T13:15:43.886Z,79.70
2023-04-01T13:18:22.853Z,79.40
2023-04-01T13:20:59.306Z,79.20
2023-04-01T13:23:48.795Z,79.30
2023-04-01T13:26:24.784Z,79.10
2023-04-01T13:28:59.743Z,79.10
2023-04-01T13:31:50.406Z,79.10
2023-04-01T13:34:29.763Z,79.50
2023-04-01T13:37:13.808Z,79.70
2023-04-01T13:39:52.802Z,79.90
2023-04-01T13:42:35.761Z,80.20
2023-04-01T13:45:14.179Z,80.10
2023-04-01T13:48:15.151Z,79.80
2023-04-01T13:51:12.646Z,79.80
2023-04-01T13:54:06.065Z,79.70
2023-04-01T13:56:47.232Z,79.60
2023-04-01T13:59:39.916Z,79.50
2023-04-01T14:02:26.411Z,79.30
2023-04-01T14:05:10.528Z,79.00
2023-04-01T14:07:52.869Z,79.10
2023-04-01T14:10:25.575Z,79.00
2023-04-01T14:13:01.826Z,78.70
2023-04-01T14:15:43.817Z,78.10
2023-04-01T14:18:38.351Z,77.70
2023-04-01T14:21:24.291Z,77.10
2023-04-01T14:24:08.441Z,77.00
2023-04-01T14:27:04.636Z,77.10
2023-04-01T14:29:44.815Z,76.70
2023-04-01T14:32:21.917Z,76.60
2023-04-01T14:35:08.605Z,76.70
2023-04-01T14:38:20.609Z,76.40
2023-04-01T14:40:58.181Z,76.20
2023-04-01T14:44:00.938Z,76.70
2023-04-01T14:47:06.799Z,76.80
2023-04-01T14:49:38.709Z,77.00
2023-04-01T14:52:13.747Z,77.00
2023-04-01T14:54:44.941Z,76.80
2023-04-01T14:57:15.925Z,76.60
2023-04-01T14:59:52.302Z,76.60
2023-04-01T15:02:37.574Z,76.50
2023-04-01T15:05:17.236Z,76.70
2023-04-01T15:08:14.853Z,76.80
2023-04-01T15:11:08.037Z,76.90
2023-04-01T15:14:04.226Z,76.80
2023-04-01T15:16:42.253Z,76.40
2023-04-01T15:19:23.698Z,76.50
2023-04-01T15:22:19.700Z,76.40
2023-04-01T15:24:50.509Z,76.40
2023-04-01T15:27:28.828Z,76.50
2023-04-01T15:30:37.520Z,76.60
2023-04-01T15:33:22.588Z,76.00
2023-04-01T15:36:12.085Z,76.10
2023-04-01T15:38:46.600Z,75.70
2023-04-01T15:41:18.778Z,75.60
2023-04-01T15:43:49.788Z,75.20
2023-04-01T15:46:30.118Z,75.00
2023-04-01T15:49:06.977Z,74.50
2023-04-01T15:51:49.502Z,74.50
2023-04-01T15:54:42.942Z,74.50
2023-04-01T15:57:22.161Z,75.00
2023-04-01T16:00:04.207Z,75.20
2023-04-01T16:02:37.462Z,74.70
2023-04-01T16:05:11.598Z,74.80
2023-04-01T16:07:56.196Z,75.40
2023-04-01T16:11:01.158Z,72.80
2023-04-01T16:13:46.089Z,72.20
2023-04-01T16:16:25.787Z,72.20
2023-04-01T16:19:31.806Z,72.10
2023-04-01T16:22:07.044Z,71.70
2023-04-01T16:24:42.098Z,71.90
2023-04-01T16:27:17.025Z,71.80
2023-04-01T16:29:50.360Z,71.80
2023-04-01T16:32:30.007Z,71.80
2023-04-01T16:35:07.259Z,72.80
2023-04-01T16:37:39.324Z,72.30
2023-04-01T16:40:25.008Z,72.40
2023-04-01T16:42:55.888Z,72.30
2023-04-01T16:45:34.899Z,72.80
2023-04-01T16:48:13.424Z,72.80
2023-04-01T16:50:57.983Z,72.90
2023-04-01T16:53:39.563Z,73.10
2023-04-01T16:56:16.382Z,73.20
2023-04-01T16:59:00.948Z,73.40
2023-04-01T17:01:32.750Z,73.70
2023-04-01T17:04:08.589Z,73.70
2023-04-01T17:06:47.554Z,73.70
2023-04-01T17:09:29.950Z,73.60
2023-04-01T17:12:13.573Z,73.80
2023-04-01T17:14:46.360Z,73.90
2023-04-01T17:17:31.893Z,74.20
2023-04-01T17:20:17.399Z,74.10
2023-04-01T17:22:52.124Z,74.10
2023-04-01T17:25:39.272Z,74.00
2023-04-01T17:28:25.805Z,74.30
2023-04-01T17:31:01.590Z,74.50
2023-04-01T17:33:48.052Z,74.40
2023-04-01T17:36:26.430Z,74.60
2023-04-01T17:39:11.958Z,74.90
2023-04-01T17:41:49.026Z,74.90
2023-04-01T17:44:37.920Z,74.90
2023-04-01T17:47:24.074Z,75.20
2023-04-01T17:49:59.631Z,75.80
2023-04-01T17:52:34.369Z,75.40
2023-04-01T17:55:32.355Z,75.60
2023-04-01T17:58:05.903Z,75.90
2023-04-01T18:00:52.895Z,75.90
2023-04-01T18:03:30.594Z,76.30
2023-04-01T18:06:09.724Z,76.40
2023-04-01T18:08:56.891Z,76.60
2023-04-01T18:11:36.196Z,77.00
2023-04-01T18:14:29.415Z,76.80
2023-04-01T18:17:17.675Z,77.00
2023-04-01T18:19:57.460Z,76.90
2023-04-01T18:22:30.754Z,77.00
2023-04-01T18:25:01.387Z,77.00
2023-04-01T18:27:35.837Z,77.00
2023-04-01T18:30:13.907Z,77.00
2023-04-01T18:32:52.788Z,77.40
2023-04-01T18:35:29.317Z,77.60
2023-04-01T18:38:02.591Z,77.60
2023-04-01T18:40:32.821Z,78.40
2023-04-01T18:43:14.123Z,77.70
2023-04-01T18:45:48.068Z,77.70
2023-04-01T18:48:39.872Z,77.80
2023-04-01T18:51:18.618Z,78.10
2023-04-01T18:53:54.924Z,78.00
2023-04-01T18:56:31.037Z,78.20
2023-04-01T18:59:07.021Z,78.40
2023-04-01T19:01:41.557Z,78.60
2023-04-01T19:04:28.820Z,78.60
2023-04-01T19:06:59.391Z,78.80
2023-04-01T19:09:29.831Z,78.40
2023-04-01T19:12:26.601Z,78.60
2023-04-01T19:15:06.590Z,78.90
2023-04-01T19:17:46.717Z,78.50
2023-04-01T19:20:23.338Z,78.70
2023-04-01T19:23:16.178Z,78.70
2023-04-01T19:25:50.344Z,79.00
2023-04-01T19:28:30.010Z,78.80
2023-04-01T19:31:00.719Z,78.90
2023-04-01T19:33:41.213Z,78.90
2023-04-01T19:36:17.787Z,79.00
2023-04-01T19:38:57.738Z,79.10
2023-04-01T19:41:37.956Z,79.10
2023-04-01T19:44:24.291Z,79.10
2023-04-01T19:46:57.690Z,79.20
2023-04-01T19:49:51.218Z,79.00
2023-04-01T19:52:26.050Z,79.20
2023-04-01T19:55:00.613Z,79.00
2023-04-01T19:57:38.276Z,78.90
2023-04-01T20:00:18.159Z,79.00
2023-04-01T20:03:00.721Z,79.10
2023-04-01T20:05:58.086Z,79.30
2023-04-01T20:08:38.153Z,79.50
2023-04-01T20:11:16.101Z,79.50
2023-04-01T20:13:51.931Z,79.50
2023-04-01T20:16:20.844Z,79.50
2023-04-01T20:18:54.058Z,79.50
2023-04-01T20:21:37.051Z,79.60
2023-04-01T20:24:18.096Z,79.90
2023-04-01T20:26:50.695Z,79.70
2023-04-01T20:29:38.767Z,79.60
2023-04-01T20:32:17.861Z,79.90
2023-04-01T20:35:22.397Z,79.50
2023-04-01T20:37:55.808Z,79.70
2023-04-01T20:40:34.119Z,79.40
2023-04-01T20:43:34.808Z,79.50
2023-04-01T20:46:09.681Z,79.50
2023-04-01T20:49:12.822Z,79.20
2023-04-01T20:51:43.834Z,79.40
2023-04-01T20:54:45.782Z,79.20
2023-04-01T20:57:20.018Z,79.50
2023-04-01T21:00:04.537Z,79.30
2023-04-01T21:02:50.367Z,79.50
2023-04-01T21:05:58.443Z,79.50
2023-04-01T21:08:38.854Z,79.60
2023-04-01T21:11:12.554Z,79.50
2023-04-01T21:13:54.352Z,79.40
2023-04-01T21:16:35.600Z,79.50
2023-04-01T21:19:14.618Z,79.50
2023-04-01T21:22:00.825Z,79.40
2023-04-01T21:25:12.625Z,79.50
2023-04-01T21:27:50.046Z,79.40
2023-04-01T21:30:36.217Z,79.30
2023-04-01T21:33:14.945Z,79.40
2023-04-01T21:35:51.305Z,79.40
2023-04-01T21:38:32.166Z,79.30
2023-04-01T21:41:32.367Z,80.20
2023-04-01T21:44:43.707Z,79.60
2023-04-01T21:47:50.833Z,79.50
2023-04-01T21:50:44.138Z,79.50
2023-04-01T21:53:45.323Z,79.50
2023-04-01T21:56:43.756Z,79.50
2023-04-01T22:00:06.827Z,79.50
2023-04-01T22:03:24.307Z,79.60
2023-04-01T22:06:16.428Z,79.50
2023-04-01T22:08:55.319Z,79.50
2023-04-01T22:11:34.384Z,79.60
2023-04-01T22:14:07.583Z,79.60
2023-04-01T22:16:42.567Z,79.50
2023-04-01T22:19:21.012Z,79.80
2023-04-01T22:22:02.462Z,79.90
2023-04-01T22:24:44.313Z,79.90
2023-04-01T22:27:23.573Z,80.00
2023-04-01T22:30:04.044Z,80.10
2023-04-01T22:32:39.685Z,80.10
2023-04-01T22:35:16.304Z,79.90
2023-04-01T22:37:54.277Z,79.90
2023-04-01T22:40:31.437Z,79.90
2023-04-01T22:43:03.925Z,79.80
2023-04-01T22:45:58.604Z,79.70
2023-04-01T22:48:34.099Z,79.90
2023-04-01T22:51:09.614Z,79.70
2023-04-01T22:53:58.541Z,79.80
2023-04-01T22:56:35.555Z,80.10
2023-04-01T22:59:09.772Z,80.00
2023-04-01T23:01:46.823Z,80.00
2023-04-01T23:04:19.219Z,80.00
2023-04-01T23:06:55.841Z,79.90
2023-04-01T23:09:27.862Z,79.90
2023-04-01T23:11:59.618Z,79.90
2023-04-01T23:14:45.361Z,79.80
2023-04-01T23:17:33.410Z,80.10
2023-04-01T23:20:11.849Z,80.10
2023-04-01T23:22:46.437Z,79.90
2023-04-01T23:25:31.285Z,80.10
2023-04-01T23:28:07.320Z,80.20
2023-04-01T23:30:56.606Z,80.10
2023-04-01T23:33:29.917Z,80.40
2023-04-01T23:36:06.121Z,80.30
2023-04-01T23:38:37.279Z,80.40
2023-04-01T23:41:08.608Z,79.90
2023-04-01T23:43:40.989Z,80.00
2023-04-01T23:46:10.089Z,80.00
2023-04-01T23:48:41.071Z,80.00
2023-04-01T23:51:17.230Z,80.20
2023-04-01T23:53:48.463Z,80.40
2023-04-01T23:56:21.972Z,80.20
2023-04-01T23:58:53.447Z,81.10
